Costilla, New Mexico
Current Conditions -  °F | °C
As of 3:52 PM on Saturday 25 Oct 2014 (Local Time) from KALS Reporting Station
Clear Clear  
Wind Chill: 74°   Ceiling: Unl
Heat Index: 74°   Visibility: 10mi
Dew Point: 19°   Wind: 5mph
Humidity: 13%   Direction: 250°WSW
Pressure: 30.27"   Gusts: NA
Location:  36.99°N, 105.53°W
Report Text: KALS 252152Z AUTO 25004KT 10SM CLR 23/M07 A3027 RMK AO2 SLP185 T02331072
Loading
Personal Weather Stations






























Interactive Weather Map
Tropical Storm Tracking
New forecast layout! Learn more

10-Day Weather Forecast

Advertisements
Track Severe Weather on mobile